createdAt,value
2023-09-27T00:02:05.843Z,100186.34
2023-09-27T00:04:33.597Z,100192.84
2023-09-27T00:07:01.290Z,100184.50
2023-09-27T00:09:32.614Z,100186.22
2023-09-27T00:12:04.984Z,100187.81
2023-09-27T00:14:33.076Z,100197.00
2023-09-27T00:17:00.719Z,100204.88
2023-09-27T00:19:28.463Z,100205.38
2023-09-27T00:21:56.221Z,100197.28
2023-09-27T00:24:24.124Z,100191.63
2023-09-27T00:26:53.379Z,100190.28
2023-09-27T00:29:21.173Z,100178.84
2023-09-27T00:31:48.932Z,100187.66
2023-09-27T00:34:16.937Z,100181.16
2023-09-27T00:36:44.557Z,100182.44
2023-09-27T00:39:15.095Z,100181.38
2023-09-27T00:41:43.179Z,100190.31
2023-09-27T00:44:12.158Z,100185.69
2023-09-27T00:46:41.072Z,100190.75
2023-09-27T00:49:09.532Z,100195.28
2023-09-27T00:51:37.606Z,100191.00
2023-09-27T00:54:06.480Z,100200.09
2023-09-27T00:56:35.292Z,100204.63
2023-09-27T00:59:04.014Z,100210.41
2023-09-27T01:01:35.002Z,100209.31
2023-09-27T01:04:03.347Z,100219.59
2023-09-27T01:06:31.547Z,100223.03
2023-09-27T01:08:59.118Z,100235.06
2023-09-27T01:11:27.111Z,100241.16
2023-09-27T01:13:54.850Z,100238.47
2023-09-27T01:16:22.650Z,100236.31
2023-09-27T01:18:51.640Z,100231.19
2023-09-27T01:21:20.472Z,100231.94
2023-09-27T01:23:51.447Z,100230.72
2023-09-27T01:26:19.764Z,100235.25
2023-09-27T01:28:47.950Z,100243.09
2023-09-27T01:31:15.809Z,100247.75
2023-09-27T01:33:43.488Z,100244.44
2023-09-27T01:36:12.795Z,100249.41
2023-09-27T01:38:40.651Z,100254.81
2023-09-27T01:41:09.706Z,100255.31
2023-09-27T01:43:37.295Z,100252.28
2023-09-27T01:46:05.484Z,100251.19
2023-09-27T01:48:33.421Z,100240.88
2023-09-27T01:51:01.006Z,100230.97
2023-09-27T01:53:28.749Z,100239.19
2023-09-27T01:55:56.488Z,100248.44
2023-09-27T01:58:25.573Z,100254.44
2023-09-27T02:00:53.217Z,100247.84
2023-09-27T02:03:21.193Z,100253.16
2023-09-27T02:05:48.983Z,100254.81
2023-09-27T02:08:17.527Z,100258.94
2023-09-27T02:10:45.252Z,100261.16
2023-09-27T02:13:13.074Z,100254.72
2023-09-27T02:15:42.031Z,100250.16
2023-09-27T02:18:09.967Z,100245.00
2023-09-27T02:20:37.982Z,100253.84
2023-09-27T02:23:05.738Z,100253.47
2023-09-27T02:25:33.536Z,100257.56
2023-09-27T02:28:01.405Z,100249.28
2023-09-27T02:30:29.342Z,100262.56
2023-09-27T02:32:58.659Z,100262.00
2023-09-27T02:35:26.704Z,100278.72
2023-09-27T02:37:54.627Z,100266.78
2023-09-27T02:40:22.769Z,100266.41
2023-09-27T02:42:50.329Z,100261.28
2023-09-27T02:45:18.004Z,100262.69
2023-09-27T02:47:47.427Z,100251.31
2023-09-27T02:50:17.547Z,100248.19
2023-09-27T02:52:45.875Z,100248.56
2023-09-27T02:55:15.831Z,100249.28
2023-09-27T02:57:44.264Z,100239.06
2023-09-27T03:00:12.946Z,100230.22
2023-09-27T03:02:40.879Z,100230.16
2023-09-27T03:05:10.641Z,100223.41
2023-09-27T03:07:40.389Z,100224.06
2023-09-27T03:10:11.729Z,100208.66
2023-09-27T03:12:41.515Z,100204.72
2023-09-27T03:15:12.694Z,100205.88
2023-09-27T03:17:41.694Z,100202.34
2023-09-27T03:20:15.752Z,100205.78
2023-09-27T03:22:45.507Z,100202.56
2023-09-27T03:25:13.146Z,100210.31
2023-09-27T03:27:41.123Z,100205.69
2023-09-27T03:30:09.852Z,100217.88
2023-09-27T03:32:37.727Z,100212.06
2023-09-27T03:35:08.289Z,100209.25
2023-09-27T03:37:36.555Z,100210.75
2023-09-27T03:40:14.137Z,100210.97
2023-09-27T03:42:44.052Z,100228.00
2023-09-27T03:45:12.144Z,100224.13
2023-09-27T03:47:40.334Z,100211.41
2023-09-27T03:50:08.696Z,100226.25
2023-09-27T03:52:36.649Z,100222.84
2023-09-27T03:55:06.314Z,100216.44
2023-09-27T03:57:34.544Z,100216.13
2023-09-27T04:00:02.356Z,100203.88
2023-09-27T04:02:32.267Z,100195.03
2023-09-27T04:05:00.184Z,100196.97
2023-09-27T04:07:27.827Z,100189.53
2023-09-27T04:09:55.517Z,100200.41
2023-09-27T04:12:24.583Z,100203.66
2023-09-27T04:14:52.265Z,100208.91
2023-09-27T04:17:20.083Z,100207.63
2023-09-27T04:19:47.759Z,100207.28
2023-09-27T04:22:15.438Z,100206.44
2023-09-27T04:24:43.097Z,100219.78
2023-09-27T04:27:10.959Z,100217.41
2023-09-27T04:29:40.241Z,100214.34
2023-09-27T04:32:07.857Z,100216.09
2023-09-27T04:34:35.819Z,100204.47
2023-09-27T04:37:03.466Z,100207.06
2023-09-27T04:39:32.539Z,100213.94
2023-09-27T04:42:00.216Z,100214.72
2023-09-27T04:44:29.434Z,100224.59
2023-09-27T04:46:59.032Z,100217.03
2023-09-27T04:49:27.013Z,100229.13
2023-09-27T04:51:54.631Z,100238.78
2023-09-27T04:54:22.472Z,100231.03
2023-09-27T04:56:50.417Z,100226.19
2023-09-27T04:59:18.251Z,100224.16
2023-09-27T05:01:45.962Z,100222.44
2023-09-27T05:04:14.985Z,100233.00
2023-09-27T05:06:43.403Z,100226.91
2023-09-27T05:09:12.689Z,100229.72
2023-09-27T05:11:41.576Z,100249.56
2023-09-27T05:14:09.311Z,100252.53
2023-09-27T05:16:38.173Z,100247.41
2023-09-27T05:19:06.209Z,100243.91
2023-09-27T05:21:35.380Z,100241.00
2023-09-27T05:24:03.350Z,100226.84
2023-09-27T05:26:31.024Z,100230.13
2023-09-27T05:28:59.261Z,100230.44
2023-09-27T05:31:27.072Z,100233.13
2023-09-27T05:33:54.705Z,100242.00
2023-09-27T05:36:22.282Z,100236.78
2023-09-27T05:38:52.252Z,100237.94
2023-09-27T05:41:22.129Z,100224.09
2023-09-27T05:43:49.830Z,100222.06
2023-09-27T05:46:17.439Z,100220.81
2023-09-27T05:48:45.636Z,100225.25
2023-09-27T05:51:18.453Z,100227.38
2023-09-27T05:53:48.111Z,100228.16
2023-09-27T05:56:17.296Z,100240.28
2023-09-27T05:58:44.958Z,100234.69
2023-09-27T06:01:14.136Z,100235.63
2023-09-27T06:03:44.106Z,100243.66
2023-09-27T06:06:11.966Z,100246.53
2023-09-27T06:08:39.673Z,100245.84
2023-09-27T06:11:10.530Z,100242.03
2023-09-27T06:13:40.018Z,100245.41
2023-09-27T06:16:15.407Z,100250.63
2023-09-27T06:18:43.086Z,100254.00
2023-09-27T06:21:10.822Z,100254.03
2023-09-27T06:23:42.388Z,100250.94
2023-09-27T06:26:11.025Z,100245.81
2023-09-27T06:28:40.082Z,100255.91
2023-09-27T06:31:08.272Z,100246.88
2023-09-27T06:33:39.544Z,100253.50
2023-09-27T06:36:08.821Z,100255.25
2023-09-27T06:38:38.143Z,100270.19
2023-09-27T06:41:06.442Z,100278.38
2023-09-27T06:43:34.284Z,100270.41
2023-09-27T06:46:11.747Z,100263.31
2023-09-27T06:48:42.449Z,100260.81
2023-09-27T06:51:12.611Z,100251.47
2023-09-27T06:53:40.566Z,100259.44
2023-09-27T06:56:08.264Z,100268.59
2023-09-27T06:58:35.891Z,100270.22
2023-09-27T07:01:05.516Z,100275.78
2023-09-27T07:03:35.281Z,100267.84
2023-09-27T07:06:03.736Z,100268.59
2023-09-27T07:08:31.995Z,100268.94
2023-09-27T07:11:05.086Z,100274.66
2023-09-27T07:13:32.733Z,100271.31
2023-09-27T07:16:00.347Z,100277.97
2023-09-27T07:18:29.383Z,100263.97
2023-09-27T07:20:57.499Z,100262.16
2023-09-27T07:23:24.545Z,100249.09
2023-09-27T07:25:53.719Z,100248.88
2023-09-27T07:28:21.274Z,100246.91
2023-09-27T07:30:48.889Z,100238.03
2023-09-27T07:33:18.516Z,100245.69
2023-09-27T07:35:52.975Z,100251.78
2023-09-27T07:38:20.848Z,100256.59
2023-09-27T07:40:48.901Z,100256.06
2023-09-27T07:43:17.005Z,100251.47
2023-09-27T07:45:45.786Z,100248.19
2023-09-27T07:48:13.684Z,100253.53
2023-09-27T07:50:41.574Z,100252.53
2023-09-27T07:53:10.705Z,100258.00
2023-09-27T07:55:44.709Z,100256.19
2023-09-27T07:58:13.606Z,100245.38
2023-09-27T08:00:41.687Z,100254.66
2023-09-27T08:03:10.188Z,100250.38
2023-09-27T08:05:44.089Z,100247.94
2023-09-27T08:08:14.667Z,100255.94
2023-09-27T08:10:44.346Z,100262.47
2023-09-27T08:13:13.816Z,100260.69
2023-09-27T08:15:42.399Z,100243.16
2023-09-27T08:18:11.000Z,100230.53
2023-09-27T08:20:39.073Z,100233.09
2023-09-27T08:23:06.926Z,100227.84
2023-09-27T08:25:38.235Z,100216.66
2023-09-27T08:28:07.022Z,100222.69
2023-09-27T08:30:34.754Z,100229.69
2023-09-27T08:33:03.041Z,100238.44
2023-09-27T08:35:31.176Z,100229.00
2023-09-27T08:37:58.897Z,100219.53
2023-09-27T08:40:26.645Z,100212.91
2023-09-27T08:42:59.713Z,100210.94
2023-09-27T08:45:28.666Z,100212.75
2023-09-27T08:47:56.462Z,100215.19
2023-09-27T08:50:25.121Z,100222.63
2023-09-27T08:52:53.536Z,100219.81
2023-09-27T08:55:21.735Z,100203.16
2023-09-27T08:57:50.710Z,100200.88
2023-09-27T09:00:23.173Z,100204.41
2023-09-27T09:02:53.775Z,100209.44
2023-09-27T09:05:23.546Z,100210.41
2023-09-27T09:07:51.779Z,100204.50
2023-09-27T09:10:19.568Z,100196.84
2023-09-27T09:12:48.502Z,100200.03
2023-09-27T09:15:36.699Z,100199.81
2023-09-27T09:18:07.623Z,100199.06
2023-09-27T09:20:50.470Z,100195.84
2023-09-27T09:23:32.232Z,100191.63
2023-09-27T09:26:00.433Z,100189.97
2023-09-27T09:28:28.317Z,100190.78
2023-09-27T09:30:57.269Z,100187.88
2023-09-27T09:33:26.450Z,100187.81
2023-09-27T09:35:54.330Z,100177.44
2023-09-27T09:38:27.167Z,100179.03
2023-09-27T09:40:55.896Z,100174.78
2023-09-27T09:43:34.622Z,100176.09
2023-09-27T09:46:07.304Z,100173.00
2023-09-27T09:48:36.047Z,100178.50
2023-09-27T09:51:08.789Z,100175.66
2023-09-27T09:53:41.281Z,100183.59
2023-09-27T09:58:45.750Z,100160.84
2023-09-27T10:01:20.688Z,100159.16
2023-09-27T10:03:49.471Z,100157.19
2023-09-27T10:06:26.408Z,100161.66
2023-09-27T10:09:02.417Z,100166.59
2023-09-27T10:11:30.608Z,100165.16
2023-09-27T10:13:58.774Z,100174.22
2023-09-27T10:16:27.817Z,100159.72
2023-09-27T10:18:56.204Z,100157.44
2023-09-27T10:21:24.728Z,100154.66
2023-09-27T10:24:00.192Z,100155.81
2023-09-27T10:26:37.164Z,100148.72
2023-09-27T10:29:14.781Z,100148.59
2023-09-27T10:32:21.105Z,100139.44
2023-09-27T10:34:53.942Z,100138.19
2023-09-27T10:37:57.808Z,100140.81
2023-09-27T10:40:26.266Z,100141.91
2023-09-27T10:42:53.974Z,100136.38
2023-09-27T10:45:22.407Z,100145.66
2023-09-27T10:47:51.156Z,100144.25
2023-09-27T10:50:32.119Z,100145.53
2023-09-27T10:53:00.958Z,100144.38
2023-09-27T10:55:43.015Z,100144.38
2023-09-27T10:58:13.642Z,100140.09
2023-09-27T11:00:52.360Z,100138.81
2023-09-27T11:03:20.465Z,100141.41
2023-09-27T11:05:49.730Z,100135.78
2023-09-27T11:08:22.902Z,100139.66
2023-09-27T11:10:53.628Z,100137.63
2023-09-27T11:13:22.288Z,100134.09
2023-09-27T11:15:49.936Z,100138.78
2023-09-27T11:18:17.609Z,100122.78
2023-09-27T11:20:45.531Z,100121.91
2023-09-27T11:23:14.603Z,100120.75
2023-09-27T11:25:44.758Z,100120.00
2023-09-27T11:28:16.408Z,100117.16
2023-09-27T11:30:44.111Z,100113.69
2023-09-27T11:33:14.419Z,100103.66
2023-09-27T11:35:49.440Z,100104.78
2023-09-27T11:40:47.438Z,100090.03
2023-09-27T11:43:15.004Z,100096.19
2023-09-27T11:45:47.399Z,100090.31
2023-09-27T11:48:15.776Z,100088.16
2023-09-27T11:50:43.958Z,100084.50
2023-09-27T11:53:12.131Z,100079.47
2023-09-27T11:55:43.649Z,100078.63
2023-09-27T11:58:11.277Z,100076.75
2023-09-27T12:00:38.847Z,100071.31
2023-09-27T12:03:07.016Z,100069.31
2023-09-27T12:05:36.971Z,100065.81
2023-09-27T12:08:05.232Z,100061.72
2023-09-27T12:10:33.058Z,100066.28
2023-09-27T12:13:02.101Z,100056.09
2023-09-27T12:15:30.543Z,100049.78
2023-09-27T12:17:58.210Z,100041.50
2023-09-27T12:20:39.427Z,100045.44
2023-09-27T12:23:10.317Z,100043.81
2023-09-27T12:25:38.617Z,100036.13
2023-09-27T12:28:07.870Z,100034.34
2023-09-27T12:30:35.506Z,100021.03
2023-09-27T12:33:03.396Z,100017.78
2023-09-27T12:35:31.319Z,100014.69
2023-09-27T12:38:00.550Z,100016.69
2023-09-27T12:40:28.093Z,100011.78
2023-09-27T12:42:55.638Z,100009.63
2023-09-27T12:45:24.518Z,100007.44
2023-09-27T12:47:52.222Z,100021.41
2023-09-27T12:50:25.130Z,100008.28
2023-09-27T12:52:52.764Z,100009.75
2023-09-27T12:55:21.594Z,99999.22
2023-09-27T12:57:50.862Z,99996.13
2023-09-27T13:00:18.909Z,99996.47
2023-09-27T13:02:48.070Z,100002.22
2023-09-27T13:05:16.583Z,99995.34
2023-09-27T13:07:44.248Z,99989.69
2023-09-27T13:10:11.910Z,99991.13
2023-09-27T13:12:42.316Z,99980.03
2023-09-27T13:15:11.931Z,99984.34
2023-09-27T13:17:39.673Z,99981.53
2023-09-27T13:20:11.318Z,99970.16
2023-09-27T13:22:39.399Z,99965.94
2023-09-27T13:25:08.095Z,99969.91
2023-09-27T13:27:35.918Z,99965.00
2023-09-27T13:30:04.342Z,99959.78
2023-09-27T13:32:32.007Z,99961.28
2023-09-27T13:34:59.809Z,99951.50
2023-09-27T13:37:28.773Z,99948.84
2023-09-27T13:39:57.370Z,99942.41
2023-09-27T13:42:25.016Z,99944.50
2023-09-27T13:44:53.391Z,99937.69
2023-09-27T13:47:21.069Z,99939.69
2023-09-27T13:49:49.101Z,99941.78
2023-09-27T13:52:16.671Z,99944.09
2023-09-27T13:54:45.600Z,99937.00
2023-09-27T13:57:13.181Z,99939.56
2023-09-27T13:59:41.397Z,99940.97
2023-09-27T14:02:09.002Z,99938.34
2023-09-27T14:04:36.658Z,99946.34
2023-09-27T14:07:04.480Z,99938.00
2023-09-27T14:09:32.128Z,99934.06
2023-09-27T14:12:01.095Z,99940.06
2023-09-27T14:14:29.247Z,99928.47
2023-09-27T14:16:58.948Z,99928.78
2023-09-27T14:19:26.708Z,99930.09
2023-09-27T14:21:54.782Z,99927.00
2023-09-27T14:24:24.322Z,99923.31
2023-09-27T14:26:52.496Z,99918.59
2023-09-27T14:29:29.718Z,99917.06
2023-09-27T14:32:05.480Z,99916.22
2023-09-27T14:34:41.201Z,99914.84
2023-09-27T14:37:10.536Z,99918.94
2023-09-27T14:39:38.169Z,99912.66
2023-09-27T14:42:06.478Z,99904.63
2023-09-27T14:44:35.397Z,99906.69
2023-09-27T14:47:03.857Z,99908.31
2023-09-27T14:49:31.414Z,99907.63
2023-09-27T14:51:58.972Z,99899.16
2023-09-27T14:54:26.531Z,99896.97
2023-09-27T14:56:54.083Z,99887.28
2023-09-27T14:59:21.639Z,99890.34
2023-09-27T15:01:50.628Z,99894.09
2023-09-27T15:04:18.443Z,99891.25
2023-09-27T15:06:46.584Z,99889.59
2023-09-27T15:09:14.125Z,99878.09
2023-09-27T15:11:41.731Z,99887.56
2023-09-27T15:14:09.301Z,99889.38
2023-09-27T15:16:37.494Z,99891.91
2023-09-27T15:19:06.516Z,99897.22
2023-09-27T15:21:34.084Z,99896.56
2023-09-27T15:24:02.255Z,99902.78
2023-09-27T15:26:29.996Z,99900.63
2023-09-27T15:28:57.729Z,99896.56
2023-09-27T15:31:25.373Z,99895.88
2023-09-27T15:33:53.141Z,99903.19
2023-09-27T15:36:22.217Z,99895.88
2023-09-27T15:38:49.862Z,99889.84
2023-09-27T15:41:17.693Z,99895.38
2023-09-27T15:43:45.424Z,99890.81
2023-09-27T15:46:16.126Z,99886.97
2023-09-27T15:48:44.999Z,99882.84
2023-09-27T15:51:16.579Z,99879.75
2023-09-27T15:53:45.612Z,99876.97
2023-09-27T15:56:13.279Z,99884.00
2023-09-27T15:58:40.886Z,99878.56
2023-09-27T16:01:09.160Z,99880.88
2023-09-27T16:03:39.171Z,99878.44
2023-09-27T16:06:06.896Z,99876.94
2023-09-27T16:08:34.466Z,99870.81
2023-09-27T16:11:04.060Z,99867.00
2023-09-27T16:13:31.669Z,99868.66
2023-09-27T16:15:59.532Z,99864.56
2023-09-27T16:18:27.147Z,99852.59
2023-09-27T16:20:54.732Z,99861.31
2023-09-27T16:23:22.352Z,99852.44
2023-09-27T16:25:50.422Z,99854.91
2023-09-27T16:28:19.854Z,99857.50
2023-09-27T16:30:48.137Z,99857.41
2023-09-27T16:33:15.933Z,99857.88
2023-09-27T16:35:43.593Z,99858.03
2023-09-27T16:38:11.486Z,99856.72
2023-09-27T16:40:40.986Z,99849.75
2023-09-27T16:43:08.827Z,99846.22
2023-09-27T16:45:39.530Z,99846.75
2023-09-27T16:48:07.713Z,99848.66
2023-09-27T16:50:35.432Z,99848.25
2023-09-27T16:53:03.338Z,99851.94
2023-09-27T16:55:30.973Z,99845.78
2023-09-27T16:57:58.911Z,99847.25
2023-09-27T17:00:27.214Z,99849.00
2023-09-27T17:02:56.405Z,99841.72
2023-09-27T17:05:24.147Z,99846.72
2023-09-27T17:07:51.807Z,99852.94
2023-09-27T17:10:19.600Z,99857.94
2023-09-27T17:12:47.463Z,99862.34
2023-09-27T17:15:15.124Z,99854.97
2023-09-27T17:17:42.908Z,99856.53
2023-09-27T17:20:12.471Z,99835.03
2023-09-27T17:22:40.407Z,99850.19
2023-09-27T17:25:09.879Z,99845.66
2023-09-27T17:27:37.737Z,99834.66
2023-09-27T17:30:06.481Z,99835.91
2023-09-27T17:32:34.265Z,99824.81
2023-09-27T17:35:02.116Z,99821.69
2023-09-27T17:37:31.865Z,99823.97
2023-09-27T17:39:59.918Z,99825.09
2023-09-27T17:42:27.572Z,99811.84
2023-09-27T17:44:55.267Z,99811.53
2023-09-27T17:47:23.151Z,99809.72
2023-09-27T17:49:51.017Z,99811.41
2023-09-27T17:52:18.662Z,99808.28
2023-09-27T17:54:48.078Z,99804.53
2023-09-27T17:57:17.081Z,99797.72
2023-09-27T17:59:46.486Z,99803.13
2023-09-27T18:02:14.249Z,99807.41
2023-09-27T18:04:42.142Z,99804.28
2023-09-27T18:07:09.954Z,99794.72
2023-09-27T18:09:38.021Z,99791.72
2023-09-27T18:12:08.164Z,99788.31
2023-09-27T18:14:36.046Z,99786.31
2023-09-27T18:17:03.967Z,99781.22
2023-09-27T18:19:31.707Z,99795.78
2023-09-27T18:21:59.547Z,99793.28
2023-09-27T18:24:27.257Z,99794.16
2023-09-27T18:26:55.503Z,99793.22
2023-09-27T18:29:24.798Z,99792.31
2023-09-27T18:31:52.546Z,99796.72
2023-09-27T18:34:20.477Z,99793.78
2023-09-27T18:36:49.577Z,99802.44
2023-09-27T18:39:17.248Z,99798.88
2023-09-27T18:41:45.168Z,99805.16
2023-09-27T18:44:13.743Z,99802.88
2023-09-27T18:46:43.037Z,99800.31
2023-09-27T18:49:10.839Z,99797.47
2023-09-27T18:51:38.507Z,99802.56
2023-09-27T18:54:08.150Z,99802.72
2023-09-27T18:56:36.649Z,99802.31
2023-09-27T18:59:05.359Z,99809.00
2023-09-27T19:01:33.396Z,99804.88
2023-09-27T19:04:03.359Z,99807.16
2023-09-27T19:06:32.595Z,99804.00
2023-09-27T19:09:00.387Z,99812.13
2023-09-27T19:11:31.316Z,99802.31
2023-09-27T19:13:59.034Z,99799.44
2023-09-27T19:16:30.560Z,99797.03
2023-09-27T19:18:58.439Z,99796.59
2023-09-27T19:21:27.388Z,99795.16
2023-09-27T19:23:55.195Z,99787.19
2023-09-27T19:26:24.160Z,99787.16
2023-09-27T19:28:52.383Z,99793.00
2023-09-27T19:31:20.083Z,99791.19
2023-09-27T19:33:48.581Z,99786.47
2023-09-27T19:36:20.470Z,99786.44
2023-09-27T19:38:50.414Z,99781.19
2023-09-27T19:41:18.146Z,99775.31
2023-09-27T19:43:45.956Z,99763.91
2023-09-27T19:46:13.696Z,99765.94
2023-09-27T19:48:42.999Z,99755.53
2023-09-27T19:51:12.057Z,99749.66
2023-09-27T19:53:39.893Z,99742.53
2023-09-27T19:56:08.868Z,99753.31
2023-09-27T19:58:36.514Z,99749.19
2023-09-27T20:01:04.951Z,99746.38
2023-09-27T20:03:32.591Z,99749.34
2023-09-27T20:06:00.190Z,99743.78
2023-09-27T20:08:27.770Z,99741.53
2023-09-27T20:10:55.927Z,99736.94
2023-09-27T20:13:24.904Z,99734.94
2023-09-27T20:15:52.496Z,99740.34
2023-09-27T20:18:20.158Z,99737.81
2023-09-27T20:20:47.798Z,99726.94
2023-09-27T20:23:15.557Z,99731.47
2023-09-27T20:25:44.465Z,99724.69
2023-09-27T20:28:12.612Z,99723.38
2023-09-27T20:30:41.883Z,99723.53
2023-09-27T20:33:09.936Z,99728.22
2023-09-27T20:35:38.077Z,99720.00
2023-09-27T20:38:09.259Z,99725.28
2023-09-27T20:40:37.656Z,99732.66
2023-09-27T20:43:05.714Z,99735.66
2023-09-27T20:45:33.718Z,99743.44
2023-09-27T20:48:02.757Z,99754.53
2023-09-27T20:50:30.532Z,99749.00
2023-09-27T20:52:57.286Z,99738.28
2023-09-27T20:55:25.164Z,99737.44
2023-09-27T20:57:52.753Z,99735.72
2023-09-27T21:00:23.565Z,99744.97
2023-09-27T21:02:51.469Z,99741.56
2023-09-27T21:05:20.426Z,99738.75
2023-09-27T21:07:50.625Z,99730.75
2023-09-27T21:10:18.286Z,99731.31
2023-09-27T21:12:46.172Z,99732.41
2023-09-27T21:15:13.752Z,99729.56
2023-09-27T21:17:41.469Z,99725.16
2023-09-27T21:20:10.409Z,99733.28
2023-09-27T21:22:39.538Z,99741.84
2023-09-27T21:25:08.093Z,99744.16
2023-09-27T21:27:36.005Z,99750.16
2023-09-27T21:30:04.828Z,99736.16
2023-09-27T21:32:33.008Z,99729.31
2023-09-27T21:35:01.233Z,99738.56
2023-09-27T21:37:28.883Z,99740.72
2023-09-27T21:39:58.392Z,99720.47
2023-09-27T21:42:25.959Z,99718.50
2023-09-27T21:44:53.701Z,99711.31
2023-09-27T21:47:21.655Z,99704.66
2023-09-27T21:49:49.604Z,99698.41
2023-09-27T21:52:17.782Z,99696.25
2023-09-27T21:54:45.804Z,99701.38
2023-09-27T21:57:16.063Z,99692.81
2023-09-27T21:59:43.697Z,99689.03
2023-09-27T22:02:12.724Z,99682.31
2023-09-27T22:04:40.565Z,99674.34
2023-09-27T22:07:08.532Z,99676.75
2023-09-27T22:09:36.468Z,99675.72
2023-09-27T22:12:05.230Z,99675.16
2023-09-27T22:14:36.244Z,99659.78
2023-09-27T22:17:09.289Z,99654.94
2023-09-27T22:19:37.688Z,99651.25
2023-09-27T22:22:05.646Z,99654.50
2023-09-27T22:24:33.252Z,99660.75
2023-09-27T22:27:02.101Z,99660.50
2023-09-27T22:29:32.805Z,99676.44
2023-09-27T22:32:02.715Z,99669.63
2023-09-27T22:34:38.090Z,99661.19
2023-09-27T22:37:08.837Z,99663.75
2023-09-27T22:39:41.007Z,99654.19
2023-09-27T22:42:13.851Z,99655.19
2023-09-27T22:44:42.490Z,99642.41
2023-09-27T22:47:11.720Z,99636.44
2023-09-27T22:49:41.182Z,99636.44
2023-09-27T22:52:10.264Z,99626.34
2023-09-27T22:54:39.466Z,99618.34
2023-09-27T22:57:07.414Z,99598.88
2023-09-27T22:59:38.984Z,99600.69
2023-09-27T23:02:10.483Z,99600.84
2023-09-27T23:04:42.361Z,99600.28
2023-09-27T23:07:17.782Z,99603.72
2023-09-27T23:09:48.131Z,99609.66
2023-09-27T23:12:19.818Z,99613.22
2023-09-27T23:15:10.976Z,99620.19
2023-09-27T23:18:01.269Z,99614.78
2023-09-27T23:20:32.283Z,99617.34
2023-09-27T23:23:07.354Z,99619.63
2023-09-27T23:25:53.585Z,99611.50
2023-09-27T23:28:31.124Z,99613.06
2023-09-27T23:31:09.539Z,99620.50
2023-09-27T23:33:42.637Z,99606.25
2023-09-27T23:36:24.222Z,99607.38
2023-09-27T23:38:58.002Z,99609.81
2023-09-27T23:41:30.858Z,99612.94
2023-09-27T23:44:01.209Z,99618.22
2023-09-27T23:46:30.151Z,99616.78
2023-09-27T23:49:02.682Z,99612.22
2023-09-27T23:51:31.689Z,99602.25
2023-09-27T23:54:00.654Z,99609.38
2023-09-27T23:56:30.807Z,99603.81
2023-09-27T23:59:08.049Z,99613.50
